首页
METAR-TAF:

METAR-TAF

机场 :

Angoon, 阿拉斯加州, 美国

纬度: 57-30N, 经度: 134-35W, 海拔: 0米

当前天气观测

该预报发布于1小时和53分钟前的17:56 UTC
静风
温度 1°C
湿度 100%
气压 1007 hPa
能見度: 16.1公里
散云层高于4300英尺
多云层高于7000英尺
阴天层高于8000英尺

METAR: PAGN 281756Z AUTO 00000KT 10SM SCT043 BKN070 OVC080 01/01 A2973 RMK AO2 SLP057 T00060006 10006 20000 53007 FZRANO

时间: 10:49 (19:49 UTC)


TAF: 丢失

超过4000个机场的气象观测和天气预报(METAR&TAF报告)。

可查询的气象台以黄色和红色小点在地图上表示。

将鼠标移到小点上方,可查看气象台名称。

然后点击查看天气观测和预报。

如需切换地图:点击带黑十字的绿色按钮放大地图;点击带横线的绿色按钮缩小地图;或者点击绿色箭头查看邻近地区的地图。


METAR-TAF: